Time;durP1;ratioP1;P1;durP2;ratioP2;P2;SDS_P1;SDS_P2;PMS_P1;PMS_P2;Temp;Humidity;BMP_temperature;BMP_pressure;BME280_temperature;BME280_humidity;BME280_pressure;Samples;Min_cycle;Max_cycle;Signal;HPM_P1;HPM_P2
2021/07/22 00:00:12;;;;;;;17.33;12.93;;;17.30;92.20;;;;;;5052451;28;20472;-67
2021/07/22 00:02:39;;;;;;;17.63;12.40;;;17.20;92.20;;;;;;5048110;28;20438;-67
2021/07/22 00:05:09;;;;;;;19.30;13.90;;;17.30;92.20;;;;;;5046787;28;20442;-67
2021/07/22 00:07:36;;;;;;;20.40;12.97;;;17.30;92.30;;;;;;5049491;28;20440;-68
2021/07/22 00:10:04;;;;;;;21.40;13.53;;;17.30;92.20;;;;;;5031847;28;20485;-68
2021/07/22 00:12:31;;;;;;;16.90;11.93;;;17.30;92.10;;;;;;5036531;28;20437;-67
2021/07/22 00:14:58;;;;;;;16.83;12.53;;;17.20;92.00;;;;;;5038099;28;20499;-67
2021/07/22 00:17:26;;;;;;;15.90;11.53;;;17.20;92.20;;;;;;5035662;28;20436;-67
2021/07/22 00:19:53;;;;;;;16.33;11.13;;;17.20;92.20;;;;;;5052007;28;20475;-67
2021/07/22 00:22:21;;;;;;;19.27;12.53;;;17.20;92.10;;;;;;5051541;28;20438;-67
2021/07/22 00:24:48;;;;;;;17.40;12.70;;;17.20;92.10;;;;;;5047799;28;20437;-67
2021/07/22 00:27:16;;;;;;;18.10;12.57;;;17.20;92.00;;;;;;5054263;28;20450;-68
2021/07/22 00:29:44;;;;;;;17.40;12.53;;;17.10;91.90;;;;;;5035864;28;20473;-68
2021/07/22 00:32:11;;;;;;;17.13;11.40;;;17.10;91.90;;;;;;5039583;28;20437;-67
2021/07/22 00:34:38;;;;;;;17.17;12.93;;;17.10;91.90;;;;;;5055771;28;20856;-67
2021/07/22 00:37:06;;;;;;;15.80;12.00;;;17.10;92.00;;;;;;5043479;28;20519;-68
2021/07/22 00:39:36;;;;;;;18.80;11.33;;;17.10;92.00;;;;;;5035828;28;20547;-68
2021/07/22 00:42:04;;;;;;;17.10;13.17;;;17.00;92.00;;;;;;5046523;28;20983;-67
2021/07/22 00:44:32;;;;;;;16.77;12.10;;;17.00;91.90;;;;;;5055757;28;20440;-67
2021/07/22 00:46:59;;;;;;;16.57;11.80;;;17.00;92.20;;;;;;5044608;28;20947;-67
2021/07/22 00:49:26;;;;;;;14.90;10.90;;;17.00;91.80;;;;;;5035523;28;20507;-67
2021/07/22 00:51:53;;;;;;;16.53;10.97;;;16.90;91.60;;;;;;5044413;28;20441;-67
2021/07/22 00:54:21;;;;;;;17.10;11.80;;;16.90;91.60;;;;;;5055408;28;20440;-67
2021/07/22 00:56:49;;;;;;;17.90;12.77;;;16.80;91.80;;;;;;5046379;28;20438;-67
2021/07/22 00:59:16;;;;;;;17.93;12.20;;;16.80;91.90;;;;;;5035504;28;20428;-67
2021/07/22 01:01:44;;;;;;;16.20;11.90;;;16.80;92.00;;;;;;5042393;28;20923;-67
2021/07/22 01:04:11;;;;;;;13.97;12.30;;;16.80;92.20;;;;;;5054629;28;20449;-67
2021/07/22 01:06:38;;;;;;;14.50;10.87;;;16.80;92.10;;;;;;5048073;28;20476;-68
2021/07/22 01:09:05;;;;;;;15.20;9.93;;;16.70;92.30;;;;;;5035175;28;20908;-67
2021/07/22 01:11:32;;;;;;;15.27;10.83;;;16.60;92.50;;;;;;5038523;28;20982;-67
2021/07/22 01:14:00;;;;;;;12.90;10.13;;;16.60;92.60;;;;;;5055231;28;20487;-67
2021/07/22 01:16:28;;;;;;;14.80;9.67;;;16.50;92.70;;;;;;5049408;28;20442;-67
2021/07/22 01:18:55;;;;;;;16.60;12.00;;;16.50;92.50;;;;;;5034885;28;21004;-67
2021/07/22 01:21:24;;;;;;;16.43;11.37;;;16.50;92.40;;;;;;5038188;28;20957;-68
2021/07/22 01:23:51;;;;;;;18.70;10.13;;;16.50;92.20;;;;;;5054840;28;20444;-67
2021/07/22 01:26:23;;;;;;;14.50;10.40;;;16.50;92.40;;;;;;5048073;28;20951;-67
2021/07/22 01:28:50;;;;;;;19.40;12.00;;;16.50;92.40;;;;;;5034839;28;20442;-67
2021/07/22 01:31:23;;;;;;;16.07;11.17;;;16.40;92.40;;;;;;5039731;28;20538;-67
2021/07/22 01:33:50;;;;;;;15.77;11.07;;;16.30;92.50;;;;;;5054699;28;20441;-67
2021/07/22 01:36:22;;;;;;;14.53;10.90;;;16.20;93.30;;;;;;5048683;28;20430;-67
2021/07/22 01:38:51;;;;;;;17.60;11.17;;;16.10;93.30;;;;;;5035498;28;20440;-67
2021/07/22 01:41:18;;;;;;;14.03;11.40;;;16.20;93.40;;;;;;5039506;28;20449;-67
2021/07/22 01:43:45;;;;;;;17.67;12.00;;;16.20;93.50;;;;;;5054563;28;20441;-67
2021/07/22 01:46:17;;;;;;;14.97;11.63;;;16.10;93.50;;;;;;5049526;28;20507;-67
2021/07/22 01:48:44;;;;;;;16.93;10.73;;;16.10;93.60;;;;;;5034294;28;20474;-67
2021/07/22 01:51:11;;;;;;;17.80;12.50;;;16.00;93.70;;;;;;5038087;28;20982;-67
2021/07/22 01:53:38;;;;;;;17.43;12.37;;;16.00;93.90;;;;;;5054223;28;20943;-67
2021/07/22 01:56:13;;;;;;;16.50;12.00;;;16.00;93.70;;;;;;5052200;28;20446;-67
2021/07/22 01:58:42;;;;;;;14.50;9.57;;;16.00;93.80;;;;;;5054293;28;20474;-67
2021/07/22 02:01:09;;;;;;;17.27;11.17;;;16.00;93.60;;;;;;5050012;28;20944;-67
2021/07/22 02:03:36;;;;;;;16.30;13.00;;;16.00;93.80;;;;;;5034156;28;20503;-67
2021/07/22 02:06:08;;;;;;;15.20;11.13;;;16.00;93.80;;;;;;5036650;28;21418;-67
2021/07/22 02:08:35;;;;;;;15.40;10.67;;;15.80;93.90;;;;;;5053833;28;20433;-67
2021/07/22 02:11:03;;;;;;;16.10;10.80;;;15.80;94.00;;;;;;5051366;28;20481;-67
2021/07/22 02:13:31;;;;;;;17.80;12.70;;;15.70;94.10;;;;;;5034138;28;20512;-67
2021/07/22 02:15:59;;;;;;;14.73;12.13;;;15.70;94.10;;;;;;5034628;28;20843;-67
2021/07/22 02:18:35;;;;;;;19.10;13.67;;;15.70;93.90;;;;;;5050869;28;20969;-66
2021/07/22 02:21:05;;;;;;;19.10;13.83;;;15.70;94.10;;;;;;5051498;28;21012;-66
2021/07/22 02:23:32;;;;;;;19.83;12.47;;;15.60;94.10;;;;;;5033952;28;20520;-66
2021/07/22 02:26:00;;;;;;;16.00;12.00;;;15.50;94.40;;;;;;5034286;28;20511;-66
2021/07/22 02:28:27;;;;;;;14.90;11.37;;;15.60;94.50;;;;;;5053637;28;20428;-66
2021/07/22 02:30:55;;;;;;;19.23;12.97;;;15.60;94.50;;;;;;5053309;28;20500;-67
2021/07/22 02:33:26;;;;;;;18.93;12.30;;;15.60;94.60;;;;;;5053637;28;20436;-66
2021/07/22 02:35:53;;;;;;;16.00;12.27;;;15.70;94.70;;;;;;5053088;28;20484;-66
2021/07/22 02:38:20;;;;;;;16.60;11.43;;;15.70;94.70;;;;;;5033460;28;20488;-66
2021/07/22 02:40:47;;;;;;;16.33;12.00;;;15.70;94.60;;;;;;5044298;28;20441;-65
2021/07/22 02:43:14;;;;;;;15.37;11.33;;;15.70;94.90;;;;;;5053305;28;20484;-69
2021/07/22 02:45:41;;;;;;;16.67;11.27;;;15.60;94.70;;;;;;5042646;28;20511;-66
2021/07/22 02:48:10;;;;;;;21.00;11.87;;;15.70;94.50;;;;;;5051262;28;20464;-66
2021/07/22 02:50:38;;;;;;;19.10;11.33;;;15.70;94.50;;;;;;5044144;28;20988;-66
2021/07/22 02:53:05;;;;;;;15.30;10.83;;;15.60;94.50;;;;;;5033215;28;20485;-66
2021/07/22 02:55:33;;;;;;;14.50;11.10;;;15.60;94.50;;;;;;5040237;28;20440;-66
2021/07/22 02:58:05;;;;;;;16.73;11.27;;;15.60;94.50;;;;;;5035554;28;20495;-66
2021/07/22 03:00:32;;;;;;;17.17;11.60;;;15.70;94.60;;;;;;5039495;28;20995;-67
2021/07/22 03:03:03;;;;;;;13.17;10.50;;;15.60;94.40;;;;;;5053081;28;20436;-66
2021/07/22 03:05:31;;;;;;;14.90;10.97;;;15.60;94.50;;;;;;5046875;28;20434;-66
2021/07/22 03:08:01;;;;;;;16.27;11.00;;;15.60;94.30;;;;;;5049298;28;20437;-66
2021/07/22 03:10:28;;;;;;;15.93;11.10;;;15.60;94.40;;;;;;5047225;28;20430;-66
2021/07/22 03:13:01;;;;;;;26.73;12.80;;;15.60;94.10;;;;;;5033222;28;20640;-66
2021/07/22 03:15:32;;;;;;;18.03;12.00;;;15.60;94.20;;;;;;5036870;28;20445;-66
2021/07/22 03:17:59;;;;;;;17.07;11.67;;;15.60;94.30;;;;;;5036558;28;20438;-66
2021/07/22 03:20:26;;;;;;;17.10;12.13;;;15.60;94.40;;;;;;5039704;28;20484;-65
2021/07/22 03:22:54;;;;;;;13.90;11.70;;;15.60;94.50;;;;;;5052734;28;20456;-66
2021/07/22 03:25:21;;;;;;;12.70;10.07;;;15.60;94.60;;;;;;5045999;28;20438;-66
2021/07/22 03:27:48;;;;;;;14.40;10.90;;;15.60;94.40;;;;;;5046929;28;20494;-66
2021/07/22 03:30:16;;;;;;;16.30;10.70;;;15.60;94.00;;;;;;5047313;28;20484;-66
2021/07/22 03:32:43;;;;;;;14.87;10.40;;;15.60;93.80;;;;;;5032634;28;20442;-66
2021/07/22 03:35:13;;;;;;;14.37;10.27;;;15.60;93.60;;;;;;5035754;28;20440;-66
2021/07/22 03:37:40;;;;;;;14.87;10.83;;;15.50;93.40;;;;;;5039092;28;20437;-66
2021/07/22 03:40:10;;;;;;;15.40;9.70;;;15.50;93.40;;;;;;5034713;28;20932;-66
2021/07/22 03:42:38;;;;;;;15.90;11.20;;;15.50;93.40;;;;;;5052512;28;20788;-65
2021/07/22 03:45:08;;;;;;;14.67;11.03;;;15.50;93.90;;;;;;5050233;28;20473;-66
2021/07/22 03:47:34;;;;;;;16.27;11.33;;;15.40;93.80;;;;;;5044344;28;20433;-66
2021/07/22 03:50:02;;;;;;;17.40;12.87;;;15.40;94.20;;;;;;5051339;28;20486;-66
2021/07/22 03:52:31;;;;;;;15.97;10.57;;;15.30;94.10;;;;;;5032417;28;20485;-66
2021/07/22 03:54:58;;;;;;;17.97;11.87;;;15.30;94.30;;;;;;5032288;28;20445;-66
2021/07/22 03:57:26;;;;;;;14.67;11.03;;;15.30;94.30;;;;;;5040132;28;20480;-66
2021/07/22 03:59:53;;;;;;;16.63;11.10;;;15.30;94.50;;;;;;5032378;28;20503;-66
2021/07/22 04:02:20;;;;;;;12.37;10.33;;;15.30;94.60;;;;;;5050945;28;20464;-66
2021/07/22 04:04:47;;;;;;;21.80;11.60;;;15.30;94.50;;;;;;5052423;28;20499;-66
2021/07/22 04:07:14;;;;;;;16.03;10.57;;;15.30;94.70;;;;;;5043167;28;20441;-68
2021/07/22 04:09:41;;;;;;;16.90;11.53;;;15.40;94.80;;;;;;5052436;28;20433;-66
2021/07/22 04:12:09;;;;;;;14.73;9.83;;;15.40;94.90;;;;;;5036090;28;20536;-66
2021/07/22 04:14:37;;;;;;;14.53;10.00;;;15.50;94.90;;;;;;5032520;28;20850;-67
2021/07/22 04:17:05;;;;;;;12.60;8.90;;;15.50;94.40;;;;;;5039516;28;20441;-66
2021/07/22 04:19:32;;;;;;;16.33;8.63;;;15.50;94.30;;;;;;5032264;28;20466;-66
2021/07/22 04:21:59;;;;;;;11.03;8.97;;;15.50;94.30;;;;;;5045827;28;20486;-67
2021/07/22 04:24:26;;;;;;;14.73;10.93;;;15.50;93.90;;;;;;5052459;28;20495;-66
2021/07/22 04:26:55;;;;;;;13.77;10.27;;;15.50;93.90;;;;;;5050456;28;20523;-66
2021/07/22 04:29:22;;;;;;;13.40;10.67;;;15.40;94.10;;;;;;5052214;28;20441;-66
2021/07/22 04:31:50;;;;;;;14.87;10.00;;;15.40;94.40;;;;;;5040707;28;20484;-66
2021/07/22 04:34:18;;;;;;;19.97;11.67;;;15.40;94.60;;;;;;5032377;28;20450;-66
2021/07/22 04:36:45;;;;;;;16.10;10.10;;;15.50;94.80;;;;;;5041763;28;20483;-66
2021/07/22 04:39:12;;;;;;;13.20;9.70;;;15.60;94.80;;;;;;5052099;28;20483;-67
2021/07/22 04:41:38;;;;;;;16.20;9.10;;;15.60;94.80;;;;;;5043103;28;20442;-66
2021/07/22 04:44:06;;;;;;;13.70;9.60;;;15.70;94.90;;;;;;5032295;28;20854;-66
2021/07/22 04:46:33;;;;;;;15.93;8.93;;;15.70;94.90;;;;;;5032737;28;20446;-66
2021/07/22 04:49:01;;;;;;;12.10;9.47;;;15.70;94.80;;;;;;5049179;28;20498;-66
2021/07/22 04:51:30;;;;;;;11.27;8.40;;;15.70;94.80;;;;;;5047683;28;20484;-70
2021/07/22 04:53:58;;;;;;;18.50;11.67;;;15.80;95.00;;;;;;5045654;28;20550;-66
2021/07/22 04:56:25;;;;;;;13.23;10.13;;;15.80;94.70;;;;;;5042575;28;20445;-66
2021/07/22 04:58:52;;;;;;;13.20;10.07;;;15.80;94.90;;;;;;5029086;28;20445;-66
2021/07/22 05:01:19;;;;;;;14.60;11.00;;;15.90;95.10;;;;;;5038192;28;20441;-67
2021/07/22 05:03:46;;;;;;;14.60;11.87;;;15.90;95.30;;;;;;5044916;28;20827;-67
2021/07/22 05:06:14;;;;;;;16.80;11.07;;;15.90;95.60;;;;;;5032171;28;20445;-66
2021/07/22 05:08:44;;;;;;;16.63;12.13;;;15.90;95.60;;;;;;5034076;28;20525;-66
2021/07/22 05:11:11;;;;;;;17.43;12.00;;;16.00;95.50;;;;;;5037764;28;20468;-66
2021/07/22 05:13:40;;;;;;;16.60;12.27;;;16.00;95.80;;;;;;5052456;28;20433;-67
2021/07/22 05:16:07;;;;;;;18.47;12.77;;;16.10;96.00;;;;;;5042469;28;20484;-66
2021/07/22 05:18:35;;;;;;;13.80;10.40;;;16.20;96.20;;;;;;5034022;28;20463;-66
2021/07/22 05:21:04;;;;;;;15.23;11.20;;;16.30;96.30;;;;;;5034292;28;20430;-69
2021/07/22 05:23:33;;;;;;;18.47;12.17;;;16.40;96.50;;;;;;5034377;28;20925;-66
2021/07/22 05:26:10;;;;;;;17.57;12.80;;;16.50;96.20;;;;;;5041537;28;20812;-67
2021/07/22 05:28:37;;;;;;;21.83;11.67;;;16.60;96.20;;;;;;5038236;28;20575;-67
2021/07/22 05:31:10;;;;;;;18.00;13.40;;;16.70;95.90;;;;;;5034903;28;20434;-66
2021/07/22 05:33:41;;;;;;;20.67;12.23;;;16.80;95.70;;;;;;5039638;28;20522;-68
2021/07/22 05:36:10;;;;;;;14.80;10.97;;;16.90;95.70;;;;;;5050633;28;20442;-66
2021/07/22 05:38:57;;;;;;;14.53;10.33;;;17.00;95.70;;;;;;5047066;28;20434;-68
2021/07/22 05:41:25;;;;;;;14.17;11.60;;;17.10;95.80;;;;;;5051942;28;20436;-68
2021/07/22 05:43:53;;;;;;;14.40;11.10;;;17.20;95.80;;;;;;5050573;28;20514;-68
2021/07/22 05:46:21;;;;;;;12.50;9.63;;;17.30;96.10;;;;;;5048372;28;20915;-68
2021/07/22 05:48:48;;;;;;;16.93;12.43;;;17.40;96.00;;;;;;5051310;28;20488;-68
2021/07/22 05:51:15;;;;;;;15.97;11.17;;;17.60;95.90;;;;;;5051395;28;20475;-68
2021/07/22 05:53:43;;;;;;;19.40;12.90;;;17.60;95.60;;;;;;5051243;28;20444;-68
2021/07/22 05:56:16;;;;;;;15.30;12.20;;;17.70;95.50;;;;;;5051663;28;20873;-68
2021/07/22 05:58:43;;;;;;;15.30;11.03;;;17.80;95.20;;;;;;5047270;28;20491;-68
2021/07/22 06:01:11;;;;;;;20.40;14.80;;;17.90;94.80;;;;;;5034329;28;20807;-68
2021/07/22 06:03:38;;;;;;;16.60;12.23;;;18.00;95.10;;;;;;5034555;28;20488;-68
2021/07/22 06:06:06;;;;;;;21.00;14.47;;;18.10;95.20;;;;;;5034254;28;20442;-67
2021/07/22 06:08:36;;;;;;;18.30;13.20;;;18.20;95.40;;;;;;5033542;28;20446;-67
2021/07/22 06:11:12;;;;;;;19.33;13.13;;;18.30;95.50;;;;;;5051384;28;20528;-69
2021/07/22 06:13:40;;;;;;;17.97;13.20;;;18.40;94.90;;;;;;5050579;28;20472;-67
2021/07/22 06:16:12;;;;;;;17.43;12.03;;;18.50;94.70;;;;;;5049496;28;20443;-68
2021/07/22 06:18:39;;;;;;;16.43;13.30;;;18.60;94.20;;;;;;5047500;28;20982;-67
2021/07/22 06:21:07;;;;;;;17.63;12.60;;;18.60;92.70;;;;;;5046801;28;20438;-67
2021/07/22 06:23:34;;;;;;;18.20;13.60;;;18.70;92.90;;;;;;5033936;28;20917;-67
2021/07/22 06:26:01;;;;;;;15.40;11.83;;;18.80;92.80;;;;;;5035875;28;20932;-67
2021/07/22 06:28:30;;;;;;;15.60;12.70;;;18.90;92.40;;;;;;5035094;28;20525;-67
2021/07/22 06:30:57;;;;;;;15.67;12.30;;;19.00;92.90;;;;;;5037348;28;20433;-67
2021/07/22 06:33:26;;;;;;;18.67;11.83;;;19.20;93.30;;;;;;5050429;28;20631;-68
2021/07/22 06:35:53;;;;;;;21.10;13.47;;;19.30;93.00;;;;;;5040711;28;20507;-67
2021/07/22 06:38:20;;;;;;;14.60;11.43;;;19.30;91.80;;;;;;5033974;28;20511;-68
2021/07/22 06:40:47;;;;;;;15.70;11.87;;;19.40;91.70;;;;;;5033725;28;20436;-68
2021/07/22 06:43:15;;;;;;;19.30;13.27;;;19.40;92.00;;;;;;5033698;28;20525;-67
2021/07/22 06:45:43;;;;;;;16.30;11.20;;;19.60;92.50;;;;;;5033912;28;20935;-67
2021/07/22 06:48:10;;;;;;;15.90;12.50;;;19.70;92.80;;;;;;5040754;28;20512;-68
2021/07/22 06:50:37;;;;;;;15.90;11.97;;;19.90;92.40;;;;;;5048132;28;20517;-68
2021/07/22 06:53:04;;;;;;;20.60;14.07;;;20.00;92.00;;;;;;5043947;28;20560;-68
2021/07/22 06:55:32;;;;;;;15.67;12.23;;;20.20;91.70;;;;;;5033484;28;20545;-68
2021/07/22 06:58:04;;;;;;;15.80;10.17;;;20.30;91.80;;;;;;5034011;28;20437;-68
2021/07/22 07:00:31;;;;;;;15.00;11.47;;;20.30;91.70;;;;;;5035325;28;20426;-68
2021/07/22 07:03:02;;;;;;;15.10;12.33;;;20.50;91.70;;;;;;5043964;28;20527;-68
2021/07/22 07:05:28;;;;;;;16.20;12.30;;;20.60;91.80;;;;;;5041140;28;20449;-68
2021/07/22 07:07:55;;;;;;;16.40;11.70;;;20.70;90.30;;;;;;5033346;28;20536;-67
2021/07/22 07:10:23;;;;;;;17.70;13.73;;;20.80;90.50;;;;;;5038966;28;20545;-68
2021/07/22 07:12:51;;;;;;;17.70;13.43;;;20.90;91.00;;;;;;5050626;28;20484;-68
2021/07/22 07:15:20;;;;;;;18.50;13.07;;;21.10;91.30;;;;;;5049375;28;20457;-68
2021/07/22 07:17:48;;;;;;;15.93;12.57;;;21.20;91.20;;;;;;5050479;28;20437;-68
2021/07/22 07:20:17;;;;;;;18.33;13.23;;;21.30;90.50;;;;;;5043800;28;20476;-69
2021/07/22 07:22:44;;;;;;;19.07;12.87;;;21.40;90.20;;;;;;5032738;28;20496;-68
2021/07/22 07:25:12;;;;;;;18.33;13.80;;;21.50;90.00;;;;;;5032504;28;20509;-68
2021/07/22 07:27:46;;;;;;;17.43;11.90;;;21.60;90.30;;;;;;5032975;28;20434;-67
2021/07/22 07:30:14;;;;;;;14.80;12.23;;;21.70;89.80;;;;;;5049097;28;20592;-71
2021/07/22 07:32:40;;;;;;;18.77;12.97;;;21.70;90.00;;;;;;5049354;28;20564;-68
2021/07/22 07:35:08;;;;;;;15.90;11.20;;;21.90;89.90;;;;;;5050101;28;20556;-67
2021/07/22 07:37:36;;;;;;;18.10;11.63;;;21.90;90.10;;;;;;5040527;28;20520;-68
2021/07/22 07:40:04;;;;;;;18.93;12.07;;;22.00;89.60;;;;;;5032910;28;21036;-69
2021/07/22 07:42:31;;;;;;;17.57;11.90;;;22.20;90.10;;;;;;5031668;28;20513;-68
2021/07/22 07:44:58;;;;;;;16.97;11.80;;;22.30;90.30;;;;;;5032543;28;20434;-68
2021/07/22 07:47:25;;;;;;;17.77;12.40;;;22.50;90.60;;;;;;5031628;28;20525;-67
2021/07/22 07:49:53;;;;;;;21.20;12.00;;;22.60;90.00;;;;;;5031719;28;20441;-68
2021/07/22 07:52:20;;;;;;;16.30;12.07;;;22.80;90.10;;;;;;5031625;28;21326;-68
2021/07/22 07:54:52;;;;;;;16.93;12.43;;;23.00;90.40;;;;;;5031472;28;20924;-68
2021/07/22 07:57:19;;;;;;;17.37;12.87;;;23.20;90.10;;;;;;5031812;28;21053;-67
2021/07/22 07:59:46;;;;;;;14.77;12.67;;;23.30;86.70;;;;;;5031947;28;20446;-67
2021/07/22 08:02:17;;;;;;;17.83;12.60;;;23.40;86.50;;;;;;5031627;28;20450;-68
2021/07/22 08:04:44;;;;;;;22.77;12.97;;;23.60;87.40;;;;;;5031704;28;20442;-68
2021/07/22 08:07:11;;;;;;;17.60;13.30;;;23.70;87.10;;;;;;5031523;28;20437;-68
2021/07/22 08:09:38;;;;;;;17.50;12.60;;;23.90;86.70;;;;;;5030242;28;20532;-68
2021/07/22 08:12:07;;;;;;;15.20;11.73;;;24.10;85.20;;;;;;5035209;28;20441;-68
2021/07/22 08:14:36;;;;;;;23.37;12.60;;;24.20;85.30;;;;;;5031984;28;20507;-73
2021/07/22 08:17:14;;;;;;;18.53;12.53;;;24.30;83.90;;;;;;5049395;28;20448;-67
2021/07/22 08:19:41;;;;;;;16.20;12.20;;;24.50;83.70;;;;;;5044741;28;20464;-68
2021/07/22 08:22:11;;;;;;;14.50;12.83;;;24.60;84.60;;;;;;5032142;28;20508;-68
2021/07/22 08:24:41;;;;;;;18.27;11.10;;;24.70;84.50;;;;;;5031855;28;20438;-69
2021/07/22 08:27:11;;;;;;;18.67;13.80;;;24.80;81.90;;;;;;5048932;28;20480;-68
2021/07/22 08:29:40;;;;;;;13.70;11.50;;;24.90;83.00;;;;;;5049221;28;20469;-68
2021/07/22 08:32:10;;;;;;;19.90;12.30;;;25.00;81.90;;;;;;5048248;28;20444;-68
2021/07/22 08:34:39;;;;;;;18.40;12.57;;;25.20;81.60;;;;;;5044973;28;20445;-68
2021/07/22 08:37:09;;;;;;;14.27;11.77;;;25.30;79.60;;;;;;5047911;28;20471;-69
2021/07/22 08:39:39;;;;;;;16.37;11.63;;;25.50;80.80;;;;;;5040997;28;20499;-68
2021/07/22 09:01:42;;;;;;;13.90;9.10;;;26.00;75.60;;;;;;5128397;27;20276;-69
2021/07/22 09:04:10;;;;;;;11.83;10.63;;;27.00;61.40;;;;;;5119564;27;20438;-69
2021/07/22 09:06:37;;;;;;;11.53;9.70;;;27.00;61.10;;;;;;5108765;28;20523;-68
2021/07/22 09:09:13;;;;;;;16.93;10.30;;;27.10;58.60;;;;;;5108811;28;20474;-69
2021/07/22 09:11:57;;;;;;;10.60;8.90;;;27.10;58.70;;;;;;5109271;28;20446;-68
2021/07/22 09:14:26;;;;;;;11.00;8.50;;;27.20;58.20;;;;;;5108795;28;20426;-69
2021/07/22 09:16:54;;;;;;;13.20;9.27;;;27.20;54.40;;;;;;5110263;28;20438;-68
2021/07/22 09:19:36;;;;;;;19.50;10.60;;;27.20;54.50;;;;;;5110028;28;20438;-67
2021/07/22 09:22:04;;;;;;;11.47;9.27;;;27.30;55.00;;;;;;5109416;28;20425;-68
2021/07/22 09:24:48;;;;;;;12.27;9.53;;;27.30;55.10;;;;;;5109602;28;20942;-68
2021/07/22 09:27:39;;;;;;;12.73;8.97;;;27.40;56.50;;;;;;5108903;28;20438;-67
2021/07/22 09:30:07;;;;;;;11.60;9.83;;;27.50;54.10;;;;;;5109111;28;20514;-68
2021/07/22 09:32:39;;;;;;;12.27;9.80;;;27.60;54.20;;;;;;5106758;28;20439;-67
2021/07/22 09:35:11;;;;;;;12.90;9.87;;;27.60;53.90;;;;;;5106674;28;20954;-67
2021/07/22 09:37:41;;;;;;;12.90;9.80;;;27.70;54.10;;;;;;5108074;28;20435;-68
2021/07/22 09:40:09;;;;;;;11.53;10.37;;;27.80;53.90;;;;;;5107702;28;20496;-67
2021/07/22 09:42:45;;;;;;;17.33;10.73;;;27.80;54.20;;;;;;5106157;28;20508;-68
2021/07/22 09:45:14;;;;;;;14.27;11.47;;;27.90;55.80;;;;;;5106925;28;20499;-67
2021/07/22 09:47:42;;;;;;;15.33;10.40;;;28.10;55.50;;;;;;5107227;28;20490;-69
2021/07/22 09:50:11;;;;;;;12.37;10.27;;;28.20;53.50;;;;;;5102679;28;20565;-68
2021/07/22 09:52:38;;;;;;;15.47;11.00;;;28.30;52.70;;;;;;5108076;28;20935;-68
2021/07/22 09:55:24;;;;;;;14.53;10.50;;;28.40;52.50;;;;;;5108026;28;20433;-68
2021/07/22 09:57:54;;;;;;;11.30;9.80;;;28.50;52.90;;;;;;5105935;28;20858;-67
2021/07/22 10:00:21;;;;;;;12.90;10.53;;;28.60;51.60;;;;;;5106800;28;20465;-69
2021/07/22 10:02:51;;;;;;;13.43;9.37;;;28.60;50.50;;;;;;5094089;28;20435;-68
2021/07/22 10:05:20;;;;;;;14.97;9.53;;;28.70;51.20;;;;;;5094564;28;20776;-68
2021/07/22 10:07:48;;;;;;;11.27;10.17;;;28.80;52.60;;;;;;5096057;28;20504;-68
2021/07/22 10:10:16;;;;;;;12.10;9.83;;;28.90;52.50;;;;;;5095869;28;20988;-68
2021/07/22 10:12:51;;;;;;;13.10;10.50;;;29.00;52.40;;;;;;5096132;28;20443;-68
2021/07/22 10:15:19;;;;;;;12.03;9.37;;;29.10;51.80;;;;;;5095600;28;20850;-67
2021/07/22 10:17:48;;;;;;;11.33;10.03;;;29.20;51.90;;;;;;5095593;28;20431;-68
2021/07/22 10:20:18;;;;;;;12.70;10.17;;;29.30;52.30;;;;;;5095181;28;20443;-68
2021/07/22 10:22:46;;;;;;;12.97;9.93;;;29.40;52.90;;;;;;5095614;28;20446;-68
2021/07/22 10:25:15;;;;;;;12.03;10.00;;;29.60;52.20;;;;;;5094680;28;20843;-67
2021/07/22 10:27:43;;;;;;;13.73;11.30;;;29.70;52.30;;;;;;5094692;28;20431;-68
2021/07/22 10:30:15;;;;;;;13.73;10.80;;;29.80;49.40;;;;;;5095122;28;20537;-68
2021/07/22 10:32:47;;;;;;;14.80;11.60;;;29.80;49.40;;;;;;5094233;28;20517;-68
2021/07/22 10:35:20;;;;;;;10.83;9.73;;;29.90;46.80;;;;;;5095096;28;20466;-67
2021/07/22 10:38:04;;;;;;;15.23;11.43;;;30.00;49.00;;;;;;5094482;28;20443;-67
2021/07/22 10:40:45;;;;;;;11.13;9.00;;;30.10;49.80;;;;;;5095116;28;20493;-68
2021/07/22 10:43:41;;;;;;;14.10;10.37;;;30.10;48.50;;;;;;5085699;28;20438;-68
2021/07/22 10:46:12;;;;;;;12.43;9.67;;;30.20;48.80;;;;;;5089684;28;20913;-71
2021/07/22 10:48:39;;;;;;;11.37;10.03;;;30.30;48.60;;;;;;5088514;28;20476;-68
2021/07/22 10:51:12;;;;;;;11.93;9.80;;;30.40;47.60;;;;;;5091715;28;20467;-72
2021/07/22 10:53:44;;;;;;;15.17;12.00;;;30.50;48.50;;;;;;5092141;28;20488;-68
2021/07/22 10:56:12;;;;;;;14.70;11.20;;;30.50;46.60;;;;;;5092325;28;20478;-67
2021/07/22 10:58:53;;;;;;;12.43;10.73;;;30.50;44.30;;;;;;5092647;28;20443;-69
2021/07/22 11:01:57;;;;;;;16.10;10.87;;;30.40;46.50;;;;;;5092303;28;20482;-68
2021/07/22 11:04:45;;;;;;;12.47;11.20;;;30.50;45.90;;;;;;5085115;28;20427;-68
2021/07/22 11:07:28;;;;;;;14.37;11.77;;;30.50;46.00;;;;;;5091807;28;20431;-68
2021/07/22 11:09:58;;;;;;;16.73;11.13;;;30.50;46.70;;;;;;5089536;28;20442;-69
2021/07/22 11:12:48;;;;;;;14.63;10.73;;;30.60;47.10;;;;;;5091150;28;20523;-68
2021/07/22 11:16:01;;;;;;;16.27;11.27;;;30.70;47.30;;;;;;5089745;28;20438;-67
2021/07/22 11:18:55;;;;;;;12.30;9.47;;;30.80;43.90;;;;;;5092868;28;20431;-68
2021/07/22 11:21:28;;;;;;;11.60;10.03;;;30.80;43.00;;;;;;5094264;28;20574;-68
2021/07/22 11:24:03;;;;;;;15.07;11.27;;;30.80;43.80;;;;;;5097665;28;20438;-68
2021/07/22 11:26:31;;;;;;;14.83;10.17;;;30.80;44.30;;;;;;5114575;28;20522;-68
2021/07/22 11:29:01;;;;;;;12.57;11.00;;;30.80;42.60;;;;;;5105450;28;20795;-68
2021/07/22 11:31:31;;;;;;;12.30;11.00;;;30.80;42.40;;;;;;5093664;28;20439;-69
2021/07/22 11:34:02;;;;;;;11.67;10.47;;;30.70;43.40;;;;;;5094503;28;20440;-68
2021/07/22 11:36:31;;;;;;;13.57;9.93;;;30.70;44.00;;;;;;5093218;28;20443;-68
2021/07/22 11:39:00;;;;;;;13.27;10.80;;;30.70;42.60;;;;;;5086524;28;20436;-70
2021/07/22 11:41:27;;;;;;;12.80;11.40;;;30.80;43.90;;;;;;5093308;28;21283;-68
2021/07/22 11:43:55;;;;;;;11.33;10.10;;;30.80;43.70;;;;;;5093626;28;20443;-68
2021/07/22 11:46:45;;;;;;;16.43;11.90;;;30.90;42.90;;;;;;5092649;28;20431;-71
2021/07/22 11:49:14;;;;;;;12.13;10.83;;;30.90;42.20;;;;;;5094018;28;20785;-68
2021/07/22 11:51:43;;;;;;;12.03;10.73;;;30.80;38.90;;;;;;5094045;28;20427;-68
2021/07/22 11:54:12;;;;;;;12.30;11.00;;;30.80;40.80;;;;;;5093568;28;20431;-68
2021/07/22 11:56:40;;;;;;;11.40;10.00;;;30.80;41.60;;;;;;5093935;28;20921;-68
2021/07/22 11:59:10;;;;;;;13.80;10.60;;;30.80;40.10;;;;;;5093618;28;20450;-68
2021/07/22 12:01:48;;;;;;;11.17;10.00;;;30.70;38.70;;;;;;5092514;28;20482;-68
2021/07/22 12:04:24;;;;;;;14.33;10.73;;;30.60;39.80;;;;;;5093739;28;21383;-69
2021/07/22 12:06:51;;;;;;;14.80;11.17;;;30.60;40.90;;;;;;5090857;28;20430;-68
2021/07/22 12:09:20;;;;;;;13.40;12.00;;;30.60;39.40;;;;;;5091677;28;20443;-68
2021/07/22 12:11:48;;;;;;;12.77;10.80;;;30.60;42.00;;;;;;5091580;28;20770;-68
2021/07/22 12:14:25;;;;;;;11.97;10.43;;;30.60;42.00;;;;;;5090812;28;20970;-69
2021/07/22 12:16:53;;;;;;;14.60;11.40;;;30.60;41.80;;;;;;5088721;28;20925;-67
2021/07/22 12:19:25;;;;;;;12.93;10.03;;;30.60;43.30;;;;;;5091051;28;20439;-68
2021/07/22 12:22:23;;;;;;;13.03;10.50;;;30.70;43.10;;;;;;5091125;28;20490;-68
2021/07/22 12:24:53;;;;;;;10.97;9.87;;;30.70;44.60;;;;;;5087522;28;20798;-68
2021/07/22 12:27:33;;;;;;;12.30;10.27;;;30.80;45.40;;;;;;5090770;28;20456;-68
2021/07/22 12:30:01;;;;;;;12.80;11.23;;;30.80;44.50;;;;;;5087546;28;20439;-70
2021/07/22 12:32:29;;;;;;;13.40;10.90;;;30.80;44.90;;;;;;5091013;28;20485;-67
2021/07/22 12:34:59;;;;;;;14.20;10.77;;;30.90;44.70;;;;;;5091323;28;20439;-68
2021/07/22 12:37:58;;;;;;;13.60;11.37;;;30.80;42.80;;;;;;5090358;28;20800;-68
2021/07/22 12:40:38;;;;;;;12.23;10.77;;;30.80;41.70;;;;;;5087671;28;20471;-68
2021/07/22 12:43:06;;;;;;;12.93;10.60;;;30.70;41.90;;;;;;5089969;28;20504;-69
2021/07/22 12:45:34;;;;;;;14.50;11.47;;;30.70;44.00;;;;;;5086965;28;20435;-68
2021/07/22 12:48:01;;;;;;;12.97;10.50;;;30.70;44.30;;;;;;5090605;28;20838;-69
2021/07/22 12:50:30;;;;;;;12.93;11.03;;;30.70;44.90;;;;;;5091024;28;20780;-68
2021/07/22 12:52:59;;;;;;;13.57;11.40;;;30.80;44.00;;;;;;5092141;28;20434;-68
2021/07/22 12:55:31;;;;;;;11.60;9.60;;;30.70;42.60;;;;;;5092276;28;20789;-68
2021/07/22 12:57:59;;;;;;;11.93;10.57;;;30.70;43.20;;;;;;5092683;28;20435;-68
2021/07/22 13:00:27;;;;;;;15.77;10.60;;;30.70;44.10;;;;;;5091675;28;20887;-69